createdAt,value
2022-12-13T00:01:34.882Z,97177.94
2022-12-13T00:04:05.571Z,97179.25
2022-12-13T00:06:34.055Z,97174.25
2022-12-13T00:09:01.309Z,97173.41
2022-12-13T00:11:28.650Z,97165.22
2022-12-13T00:13:55.558Z,97171.81
2022-12-13T00:16:24.779Z,97172.16
2022-12-13T00:19:01.513Z,97160.91
2022-12-13T00:21:31.601Z,97158.16
2022-12-13T00:24:00.830Z,97159.75
2022-12-13T00:26:30.282Z,97160.28
2022-12-13T00:29:02.248Z,97159.19
2022-12-13T00:34:19.619Z,97154.22
2022-12-13T00:36:46.898Z,97154.69
2022-12-13T00:39:14.441Z,97145.31
2022-12-13T00:41:41.907Z,97150.41
2022-12-13T00:44:11.799Z,97149.69
2022-12-13T00:46:39.810Z,97146.72
2022-12-13T00:49:06.613Z,97152.63
2022-12-13T00:51:34.653Z,97148.84
2022-12-13T00:54:02.407Z,97151.56
2022-12-13T00:56:32.417Z,97146.19
2022-12-13T00:59:00.334Z,97138.88
2022-12-13T01:01:33.139Z,97138.88
2022-12-13T01:04:02.549Z,97140.06
2022-12-13T01:06:34.288Z,97139.19
2022-12-13T01:09:01.841Z,97126.75
2022-12-13T01:11:28.741Z,97134.81
2022-12-13T01:13:55.553Z,97136.38
2022-12-13T01:16:22.449Z,97135.22
2022-12-13T01:18:49.316Z,97138.06
2022-12-13T01:21:18.924Z,97129.94
2022-12-13T01:23:45.973Z,97130.78
2022-12-13T01:26:16.415Z,97128.94
2022-12-13T01:28:44.191Z,97130.06
2022-12-13T01:31:13.935Z,97136.28
2022-12-13T01:33:42.384Z,97147.22
2022-12-13T01:36:14.538Z,97128.50
2022-12-13T01:38:41.392Z,97136.41
2022-12-13T01:41:17.569Z,97141.16
2022-12-13T01:43:45.217Z,97140.47
2022-12-13T01:46:13.510Z,97141.34
2022-12-13T01:48:56.728Z,97140.47
2022-12-13T01:51:34.359Z,97140.03
2022-12-13T01:54:03.396Z,97143.13
2022-12-13T01:56:36.662Z,97131.06
2022-12-13T01:59:06.898Z,97135.69
2022-12-13T02:01:34.495Z,97143.81
2022-12-13T02:04:01.398Z,97143.38
2022-12-13T02:06:35.709Z,97137.91
2022-12-13T02:09:05.801Z,97132.00
2022-12-13T02:11:35.349Z,97133.69
2022-12-13T02:14:02.663Z,97133.81
2022-12-13T02:16:45.741Z,97128.00
2022-12-13T02:19:38.984Z,97136.59
2022-12-13T02:22:37.000Z,97139.31
2022-12-13T02:25:36.248Z,97131.91
2022-12-13T02:28:31.605Z,97125.66
2022-12-13T02:31:13.093Z,97130.72
2022-12-13T02:34:23.872Z,97125.75
2022-12-13T02:37:02.075Z,97118.78
2022-12-13T02:39:34.305Z,97121.16
2022-12-13T02:42:06.461Z,97116.53
2022-12-13T02:44:43.444Z,97125.97
2022-12-13T02:47:21.977Z,97122.22
2022-12-13T02:49:54.216Z,97125.34
2022-12-13T02:52:24.758Z,97129.19
2022-12-13T02:54:54.497Z,97119.41
2022-12-13T02:57:39.025Z,97119.78
2022-12-13T03:00:21.774Z,97120.25
2022-12-13T03:03:23.645Z,97116.34
2022-12-13T03:06:33.901Z,97109.06
2022-12-13T03:09:45.042Z,97109.06
2022-12-13T03:12:42.602Z,97116.91
2022-12-13T03:15:29.617Z,97119.94
2022-12-13T03:18:06.492Z,97118.00
2022-12-13T03:20:33.542Z,97110.63
2022-12-13T03:23:00.537Z,97104.44
2022-12-13T03:25:32.987Z,97104.44
2022-12-13T03:28:02.944Z,97093.94
2022-12-13T03:30:32.485Z,97098.25
2022-12-13T03:32:59.834Z,97100.16
2022-12-13T03:35:34.754Z,97089.97
2022-12-13T03:38:12.465Z,97088.88
2022-12-13T03:40:51.917Z,97084.25
2022-12-13T03:43:22.497Z,97086.16
2022-12-13T03:45:53.372Z,97087.66
2022-12-13T03:48:22.006Z,97090.75
2022-12-13T03:50:51.470Z,97089.19
2022-12-13T03:53:23.231Z,97082.63
2022-12-13T03:56:01.520Z,97095.06
2022-12-13T03:58:35.739Z,97085.69
2022-12-13T04:01:05.808Z,97084.13
2022-12-13T04:03:33.139Z,97080.66
2022-12-13T04:05:59.954Z,97088.44
2022-12-13T04:08:26.806Z,97077.97
2022-12-13T04:10:53.724Z,97086.25
2022-12-13T04:13:35.408Z,97100.59
2022-12-13T04:16:03.450Z,97084.41
2022-12-13T04:18:30.474Z,97080.66
2022-12-13T04:20:58.565Z,97081.09
2022-12-13T04:23:25.442Z,97079.19
2022-12-13T04:25:52.409Z,97085.38
2022-12-13T04:28:22.103Z,97091.59
2022-12-13T04:30:53.052Z,97084.25
2022-12-13T04:33:22.713Z,97078.38
2022-12-13T04:35:50.366Z,97075.22
2022-12-13T04:38:17.789Z,97075.22
2022-12-13T04:40:44.696Z,97078.31
2022-12-13T04:43:11.787Z,97079.88
2022-12-13T04:45:38.873Z,97074.41
2022-12-13T04:48:06.085Z,97078.31
2022-12-13T04:50:33.272Z,97074.09
2022-12-13T04:53:00.195Z,97075.25
2022-12-13T04:55:27.089Z,97070.59
2022-12-13T04:57:53.950Z,97072.13
2022-12-13T05:00:22.548Z,97061.25
2022-12-13T05:02:49.445Z,97061.97
2022-12-13T05:05:16.723Z,97065.47
2022-12-13T05:07:43.924Z,97065.88
2022-12-13T05:10:12.076Z,97063.59
2022-12-13T05:12:39.399Z,97066.41
2022-12-13T05:15:06.981Z,97066.06
2022-12-13T05:17:34.218Z,97064.16
2022-12-13T05:20:01.011Z,97070.78
2022-12-13T05:22:27.924Z,97063.03
2022-12-13T05:24:54.849Z,97064.53
2022-12-13T05:27:24.665Z,97068.41
2022-12-13T05:30:02.705Z,97070.81
2022-12-13T05:32:43.019Z,97061.91
2022-12-13T05:35:22.452Z,97064.53
2022-12-13T05:37:53.208Z,97067.28
2022-12-13T05:40:29.659Z,97062.63
2022-12-13T05:43:01.674Z,97065.81
2022-12-13T05:45:32.858Z,97069.72
2022-12-13T05:47:59.811Z,97068.56
2022-12-13T05:50:26.758Z,97064.81
2022-12-13T05:52:53.647Z,97069.03
2022-12-13T05:55:20.575Z,97069.44
2022-12-13T05:57:50.271Z,97073.28
2022-12-13T06:00:29.759Z,97071.69
2022-12-13T06:03:00.794Z,97073.59
2022-12-13T06:05:29.929Z,97066.16
2022-12-13T06:07:57.997Z,97062.63
2022-12-13T06:10:34.131Z,97059.09
2022-12-13T06:13:21.977Z,97060.66
2022-12-13T06:15:51.937Z,97054.78
2022-12-13T06:18:28.119Z,97052.84
2022-12-13T06:21:00.487Z,97047.41
2022-12-13T06:23:27.852Z,97059.09
2022-12-13T06:25:54.940Z,97049.75
2022-12-13T06:28:21.860Z,97055.22
2022-12-13T06:30:52.523Z,97047.47
2022-12-13T06:33:23.401Z,97050.63
2022-12-13T06:35:52.835Z,97052.66
2022-12-13T06:38:21.959Z,97055.03
2022-12-13T06:41:09.270Z,97067.09
2022-12-13T06:43:36.488Z,97066.75
2022-12-13T06:46:06.254Z,97071.03
2022-12-13T06:48:33.725Z,97070.19
2022-12-13T06:51:05.173Z,97067.53
2022-12-13T06:53:32.209Z,97060.97
2022-12-13T06:56:04.834Z,97066.44
2022-12-13T06:58:32.839Z,97058.31
